Time;durP1;ratioP1;P1;durP2;ratioP2;P2;SDS_P1;SDS_P2;PMS_P1;PMS_P2;Temp;Humidity;BMP_temperature;BMP_pressure;BME280_temperature;BME280_humidity;BME280_pressure;Samples;Min_cycle;Max_cycle;Signal;HPM_P1;HPM_P2
2023/04/10 00:00:07;;;;;;;93.70;61.47;;;7.10;99.90;;;;;;5091012;28;20036;-56
2023/04/10 00:02:32;;;;;;;87.65;62.25;;;7.10;99.90;;;;;;5089390;28;20040;-54
2023/04/10 00:04:59;;;;;;;94.87;67.30;;;7.10;99.90;;;;;;5096527;28;20044;-54
2023/04/10 00:07:25;;;;;;;91.65;67.38;;;7.10;99.90;;;;;;5091389;28;20520;-51
2023/04/10 00:09:51;;;;;;;96.60;69.35;;;7.10;99.90;;;;;;5094802;28;20024;-53
2023/04/10 00:12:17;;;;;;;98.47;65.90;;;7.20;99.90;;;;;;5109530;28;20032;-51
2023/04/10 00:14:42;;;;;;;95.93;67.88;;;7.20;99.90;;;;;;5105434;28;20050;-52
2023/04/10 00:17:08;;;;;;;95.50;68.23;;;7.20;99.90;;;;;;5096830;28;20063;-55
2023/04/10 00:19:34;;;;;;;93.57;66.00;;;7.20;99.90;;;;;;5086536;28;20116;-53
2023/04/10 00:21:59;;;;;;;90.40;68.15;;;7.10;99.90;;;;;;5090814;28;20040;-52
2023/04/10 00:24:25;;;;;;;104.95;69.90;;;7.10;99.90;;;;;;5086787;28;20038;-53
2023/04/10 00:26:50;;;;;;;94.23;64.73;;;7.10;99.90;;;;;;5088793;28;20085;-53
2023/04/10 00:29:16;;;;;;;94.50;66.70;;;7.10;99.90;;;;;;5082854;28;20130;-51
2023/04/10 00:31:42;;;;;;;95.20;67.82;;;7.10;99.90;;;;;;5090670;28;20032;-54
2023/04/10 00:34:07;;;;;;;97.00;70.97;;;7.10;99.90;;;;;;5100837;28;20038;-51
2023/04/10 00:36:34;;;;;;;96.17;69.47;;;7.10;99.90;;;;;;5094627;27;20028;-54
2023/04/10 00:39:00;;;;;;;;;;;7.10;99.90;;;;;;5089474;28;20760;-54
2023/04/10 00:41:26;;;;;;;95.95;68.82;;;7.00;99.90;;;;;;5095133;28;19920;-54
2023/04/10 00:43:57;;;;;;;100.43;70.32;;;7.10;99.90;;;;;;5090373;28;20036;-53
2023/04/10 00:46:23;;;;;;;105.15;71.68;;;7.10;99.90;;;;;;5102488;28;20396;-51
2023/04/10 00:48:51;;;;;;;97.90;69.35;;;7.00;99.90;;;;;;5106155;28;20062;-52
2023/04/10 00:51:19;;;;;;;99.35;70.28;;;7.00;99.90;;;;;;5096324;28;20044;-53
2023/04/10 00:53:53;;;;;;;97.88;72.00;;;7.00;99.90;;;;;;5090415;28;20060;-51
2023/04/10 00:56:19;;;;;;;103.90;74.07;;;7.00;99.90;;;;;;5100639;28;20078;-51
2023/04/10 00:58:45;;;;;;;96.10;71.15;;;7.00;99.90;;;;;;5105339;28;20089;-51
2023/04/10 01:01:11;;;;;;;102.57;72.82;;;6.90;99.90;;;;;;5098763;28;20039;-52
2023/04/10 01:03:39;;;;;;;102.50;75.35;;;6.90;99.90;;;;;;5090197;28;20443;-51
2023/04/10 01:06:08;;;;;;;106.00;74.70;;;6.90;99.90;;;;;;5098045;28;20054;-52
2023/04/10 01:08:49;;;;;;;102.10;74.30;;;6.90;99.90;;;;;;5105136;28;20040;-51
2023/04/10 01:11:25;;;;;;;104.00;75.45;;;6.80;99.90;;;;;;5099880;28;20036;-54
2023/04/10 01:14:16;;;;;;;108.95;78.25;;;6.80;99.90;;;;;;5089443;28;20226;-52
2023/04/10 01:17:00;;;;;;;98.90;73.75;;;6.70;99.90;;;;;;5099833;28;20040;-51
2023/04/10 01:19:54;;;;;;;102.88;76.55;;;6.70;99.90;;;;;;5091004;28;20035;-51
2023/04/10 01:22:22;;;;;;;102.90;75.75;;;6.70;99.90;;;;;;5091917;28;20050;-53
2023/04/10 01:24:56;;;;;;;98.32;74.07;;;6.60;99.90;;;;;;5106458;28;20122;-53
2023/04/10 01:27:45;;;;;;;101.72;74.57;;;6.60;99.90;;;;;;5102961;28;20043;-55
2023/04/10 01:30:16;;;;;;;106.22;77.38;;;6.60;99.90;;;;;;5106921;28;20031;-51
2023/04/10 01:32:43;;;;;;;106.72;75.88;;;6.50;99.90;;;;;;5092020;28;20032;-53
2023/04/10 01:35:11;;;;;;;104.57;74.72;;;6.50;99.90;;;;;;5107902;28;20401;-53
2023/04/10 01:37:41;;;;;;;100.82;76.57;;;6.50;99.90;;;;;;5095962;28;20577;-51
2023/04/10 01:40:10;;;;;;;106.75;76.13;;;6.50;99.90;;;;;;5088787;28;20085;-53
2023/04/10 01:42:42;;;;;;;99.63;76.18;;;6.40;99.90;;;;;;5104288;28;20049;-52
2023/04/10 01:45:14;;;;;;;103.90;76.32;;;6.40;99.90;;;;;;5106951;28;20036;-51
2023/04/10 01:47:41;;;;;;;103.90;75.88;;;6.40;99.90;;;;;;5105966;28;20048;-52
2023/04/10 01:50:08;;;;;;;102.30;76.38;;;6.40;99.90;;;;;;5107471;28;20036;-54
2023/04/10 01:52:35;;;;;;;107.35;76.63;;;6.30;99.90;;;;;;5093191;28;20047;-55
2023/04/10 01:55:03;;;;;;;107.10;76.75;;;6.30;99.90;;;;;;5093580;28;20115;-54
2023/04/10 01:57:30;;;;;;;101.95;75.95;;;6.30;99.90;;;;;;5104464;28;20066;-54
2023/04/10 01:59:56;;;;;;;104.65;76.57;;;6.20;99.90;;;;;;5107811;28;20028;-51
2023/04/10 02:02:22;;;;;;;104.10;75.70;;;6.20;99.90;;;;;;5096836;28;20043;-54
2023/04/10 02:04:50;;;;;;;112.00;77.13;;;6.20;99.90;;;;;;5095685;28;20044;-54
2023/04/10 02:07:38;;;;;;;105.25;75.78;;;6.20;99.90;;;;;;5095390;28;20385;-55
2023/04/10 02:10:08;;;;;;;;;;;6.20;99.90;;;;;;5089791;28;20028;-54
2023/04/10 02:12:52;;;;;;;106.45;74.03;;;6.20;99.90;;;;;;5100822;28;19923;-51
2023/04/10 02:15:20;;;;;;;109.18;75.88;;;6.20;99.90;;;;;;5094780;28;20119;-54
2023/04/10 02:17:46;;;;;;;104.28;74.78;;;6.30;99.90;;;;;;5090769;28;20110;-55
2023/04/10 02:20:14;;;;;;;105.45;74.00;;;6.30;99.90;;;;;;5089367;28;20040;-55
2023/04/10 02:22:44;;;;;;;102.90;73.95;;;6.30;99.90;;;;;;5100733;28;20060;-52
2023/04/10 02:25:10;;;;;;;104.05;73.72;;;6.40;99.90;;;;;;5094146;28;20389;-54
2023/04/10 02:27:37;;;;;;;105.10;75.13;;;6.40;99.90;;;;;;5093747;28;20084;-54
2023/04/10 02:30:03;;;;;;;;;;;6.30;99.90;;;;;;5103474;28;20416;-52
2023/04/10 02:32:29;;;;;;;107.35;75.50;;;6.30;99.90;;;;;;5101881;28;19930;-52
2023/04/10 02:34:55;;;;;;;100.95;73.82;;;6.30;99.90;;;;;;5108852;28;20035;-54
2023/04/10 02:37:22;;;;;;;107.57;75.20;;;6.30;99.90;;;;;;5106162;28;20043;-53
2023/04/10 02:39:47;;;;;;;111.10;78.22;;;6.20;99.90;;;;;;5090833;28;20040;-53
2023/04/10 02:42:13;;;;;;;108.97;78.03;;;6.20;99.90;;;;;;5095770;28;20031;-54
2023/04/10 02:44:39;;;;;;;99.27;74.80;;;6.20;99.90;;;;;;5095544;28;20043;-51
2023/04/10 02:47:05;;;;;;;107.47;75.82;;;6.20;99.90;;;;;;5107252;28;20339;-52
2023/04/10 02:49:34;;;;;;;106.05;77.13;;;6.10;99.90;;;;;;5090747;28;20028;-54
2023/04/10 02:52:03;;;;;;;103.82;77.03;;;6.10;99.90;;;;;;5093681;28;20077;-53
2023/04/10 02:54:28;;;;;;;104.10;74.70;;;6.10;99.90;;;;;;5104095;28;20048;-52
2023/04/10 02:56:56;;;;;;;99.73;73.87;;;6.00;99.90;;;;;;5092779;28;20043;-54
2023/04/10 02:59:22;;;;;;;102.45;73.85;;;6.00;99.90;;;;;;5108219;28;20431;-54
2023/04/10 03:01:48;;;;;;;104.10;76.93;;;6.00;99.90;;;;;;5109805;28;20073;-54
2023/04/10 03:04:13;;;;;;;106.13;76.45;;;6.00;99.90;;;;;;5094722;28;20520;-55
2023/04/10 03:06:39;;;;;;;105.17;78.10;;;5.90;99.90;;;;;;5091948;28;20032;-52
2023/04/10 03:09:05;;;;;;;105.55;78.28;;;5.90;99.90;;;;;;5105892;28;20309;-53
2023/04/10 03:11:30;;;;;;;109.57;76.63;;;6.00;99.90;;;;;;5105129;28;20040;-52
2023/04/10 03:13:59;;;;;;;107.17;75.57;;;6.00;99.90;;;;;;5104602;28;20027;-55
2023/04/10 03:16:25;;;;;;;106.45;77.38;;;6.00;99.90;;;;;;5110459;28;20108;-53
2023/04/10 03:18:52;;;;;;;112.20;79.10;;;5.90;99.90;;;;;;5096977;28;20671;-52
2023/04/10 03:21:18;;;;;;;110.00;77.78;;;5.90;99.90;;;;;;5091398;28;20132;-52
2023/04/10 03:23:43;;;;;;;111.67;78.47;;;5.90;99.90;;;;;;5100822;27;20060;-51
2023/04/10 03:26:09;;;;;;;105.27;78.10;;;5.90;99.90;;;;;;5091965;28;20036;-54
2023/04/10 03:28:35;;;;;;;104.10;77.93;;;5.90;99.90;;;;;;5100834;28;20031;-54
2023/04/10 03:31:02;;;;;;;104.93;77.93;;;5.90;99.90;;;;;;5107314;28;20493;-53
2023/04/10 03:33:28;;;;;;;109.88;77.47;;;5.90;99.90;;;;;;5099761;28;20031;-51
2023/04/10 03:35:54;;;;;;;114.07;76.50;;;5.90;99.90;;;;;;5109812;28;20027;-51
2023/04/10 03:38:20;;;;;;;107.63;77.67;;;5.90;99.90;;;;;;5103624;28;20040;-51
2023/04/10 03:40:45;;;;;;;105.35;76.47;;;5.90;99.90;;;;;;5095638;28;20531;-53
2023/04/10 03:43:11;;;;;;;112.57;76.40;;;5.80;99.90;;;;;;5103109;28;20040;-55
2023/04/10 03:45:36;;;;;;;115.73;78.97;;;5.90;99.90;;;;;;5110519;28;20076;-52
2023/04/10 03:48:02;;;;;;;114.67;79.43;;;5.80;99.90;;;;;;5105353;28;20128;-52
2023/04/10 03:50:27;;;;;;;108.57;79.13;;;5.80;99.90;;;;;;5091753;28;20040;-52
2023/04/10 03:52:53;;;;;;;108.70;76.73;;;5.80;99.90;;;;;;5091547;28;20274;-56
2023/04/10 03:55:19;;;;;;;101.20;76.68;;;5.80;99.90;;;;;;5110059;28;20494;-53
2023/04/10 03:57:48;;;;;;;109.47;79.18;;;5.80;99.90;;;;;;5108885;28;20039;-52
2023/04/10 04:00:15;;;;;;;108.60;76.47;;;5.80;99.90;;;;;;5092643;28;20043;-54
2023/04/10 04:02:41;;;;;;;106.35;75.13;;;5.80;99.90;;;;;;5104914;28;20450;-52
2023/04/10 04:05:07;;;;;;;111.40;80.65;;;5.80;99.90;;;;;;5093009;28;20048;-53
2023/04/10 04:07:33;;;;;;;103.63;74.60;;;5.70;99.90;;;;;;5108931;28;20439;-51
2023/04/10 04:09:59;;;;;;;107.33;77.03;;;5.70;99.90;;;;;;5099093;28;20288;-52
2023/04/10 04:12:25;;;;;;;107.65;76.05;;;5.70;99.90;;;;;;5092921;28;20108;-55
2023/04/10 04:14:51;;;;;;;105.70;74.70;;;5.60;99.90;;;;;;5108251;28;20114;-54
2023/04/10 04:17:16;;;;;;;109.78;77.70;;;5.60;99.90;;;;;;5109327;28;20082;-52
2023/04/10 04:19:42;;;;;;;102.00;73.90;;;5.60;99.90;;;;;;5090745;28;20123;-53
2023/04/10 04:22:07;;;;;;;104.33;77.03;;;5.50;99.90;;;;;;5109042;28;20361;-53
2023/04/10 04:24:33;;;;;;;106.67;77.70;;;5.50;99.90;;;;;;5103713;28;20036;-51
2023/04/10 04:26:58;;;;;;;102.53;73.60;;;5.50;99.90;;;;;;5109296;28;20039;-52
2023/04/10 04:29:24;;;;;;;113.77;78.13;;;5.40;99.90;;;;;;5105330;28;20313;-53
2023/04/10 04:31:50;;;;;;;106.93;77.07;;;5.40;99.90;;;;;;5107677;27;20110;-51
2023/04/10 04:34:15;;;;;;;104.57;73.67;;;5.40;99.90;;;;;;5098804;28;20304;-52
2023/04/10 04:36:41;;;;;;;103.80;75.13;;;5.40;99.90;;;;;;5090811;28;20168;-53
2023/04/10 04:39:07;;;;;;;107.90;77.85;;;5.30;99.90;;;;;;5095617;28;20277;-51
2023/04/10 04:41:32;;;;;;;101.67;76.77;;;5.30;99.90;;;;;;5107694;28;20410;-51
2023/04/10 04:44:00;;;;;;;105.63;78.53;;;5.30;99.90;;;;;;5102405;28;20039;-54
2023/04/10 04:46:26;;;;;;;106.60;74.68;;;5.30;99.90;;;;;;5090441;28;20093;-51
2023/04/10 04:48:51;;;;;;;102.83;76.57;;;5.30;99.90;;;;;;5090101;28;20115;-52
2023/04/10 04:51:17;;;;;;;108.77;77.03;;;5.30;99.90;;;;;;5091412;28;20258;-51
2023/04/10 04:53:43;;;;;;;105.60;77.13;;;5.30;99.90;;;;;;5094388;28;20400;-53
2023/04/10 04:56:08;;;;;;;104.40;75.17;;;5.30;99.90;;;;;;5108639;28;20035;-54
2023/04/10 04:58:34;;;;;;;104.43;76.13;;;5.30;99.90;;;;;;5103572;28;20169;-51
2023/04/10 05:00:59;;;;;;;103.60;76.80;;;5.30;99.90;;;;;;5092608;28;20114;-54
2023/04/10 05:03:27;;;;;;;107.68;75.50;;;5.30;99.90;;;;;;5107957;28;20043;-52
2023/04/10 05:05:53;;;;;;;106.75;74.13;;;5.30;99.90;;;;;;5090755;28;20434;-51
2023/04/10 05:08:19;;;;;;;105.15;75.03;;;5.30;99.90;;;;;;5090832;28;20075;-52
2023/04/10 05:10:44;;;;;;;103.17;75.30;;;5.40;99.90;;;;;;5104337;28;20074;-51
2023/04/10 05:13:10;;;;;;;101.43;74.60;;;5.40;99.90;;;;;;5108185;28;20074;-53
2023/04/10 05:15:36;;;;;;;106.47;76.38;;;5.50;99.90;;;;;;5094217;28;20024;-51
2023/04/10 05:18:02;;;;;;;99.70;72.80;;;5.50;99.90;;;;;;5089876;28;20111;-52
2023/04/10 05:20:27;;;;;;;103.05;73.07;;;5.50;99.90;;;;;;5097970;28;20081;-55
2023/04/10 05:22:53;;;;;;;104.87;75.27;;;5.60;99.90;;;;;;5089873;28;20467;-51
2023/04/10 05:25:18;;;;;;;109.90;78.17;;;5.70;99.90;;;;;;5097773;28;20040;-51
2023/04/10 05:27:44;;;;;;;104.27;76.77;;;5.70;99.90;;;;;;5106420;28;20563;-53
2023/04/10 05:30:10;;;;;;;109.37;76.80;;;5.70;99.90;;;;;;5099440;28;20032;-55
2023/04/10 05:32:36;;;;;;;107.05;76.90;;;5.70;99.90;;;;;;5090341;28;20108;-54
2023/04/10 05:35:01;;;;;;;103.90;74.37;;;5.80;99.90;;;;;;5092489;28;20028;-52
2023/04/10 05:37:27;;;;;;;108.53;74.50;;;5.80;99.90;;;;;;5089685;28;20489;-55
2023/04/10 05:39:53;;;;;;;100.10;73.80;;;5.80;99.90;;;;;;5088876;28;20040;-54
2023/04/10 05:42:18;;;;;;;101.13;72.20;;;5.90;99.90;;;;;;5089650;28;20100;-52
2023/04/10 05:44:44;;;;;;;102.77;76.07;;;5.90;99.90;;;;;;5094718;28;20039;-51
2023/04/10 05:47:10;;;;;;;112.97;77.20;;;6.00;99.90;;;;;;5107741;28;20396;-51
2023/04/10 05:49:35;;;;;;;105.40;73.10;;;6.00;99.90;;;;;;5102638;28;20561;-54
2023/04/10 05:52:01;;;;;;;106.33;72.47;;;6.10;99.90;;;;;;5107896;28;20031;-54
2023/04/10 05:54:26;;;;;;;105.43;74.43;;;6.10;99.90;;;;;;5101251;28;20035;-53
2023/04/10 05:56:52;;;;;;;103.20;72.17;;;6.20;99.90;;;;;;5107573;28;20067;-55
2023/04/10 05:59:18;;;;;;;103.60;74.47;;;6.30;99.90;;;;;;5099187;28;20685;-56
2023/04/10 06:01:46;;;;;;;101.23;70.90;;;6.40;99.90;;;;;;5106108;28;20181;-53
2023/04/10 06:04:11;;;;;;;100.32;72.45;;;6.50;99.90;;;;;;5097387;28;20282;-53
2023/04/10 06:06:38;;;;;;;97.32;71.57;;;6.60;99.90;;;;;;5105251;28;20175;-51
2023/04/10 06:09:03;;;;;;;;;;;6.70;99.90;;;;;;5109334;28;20042;-53
2023/04/10 06:11:29;;;;;;;97.43;69.18;;;6.80;99.90;;;;;;5095520;27;19920;-55
2023/04/10 06:13:55;;;;;;;100.68;70.70;;;6.90;99.90;;;;;;5096585;28;20073;-52
2023/04/10 06:16:20;;;;;;;95.22;68.63;;;7.00;99.90;;;;;;5100943;28;20047;-54
2023/04/10 06:18:46;;;;;;;96.10;67.17;;;7.10;99.90;;;;;;5094047;28;20093;-55
2023/04/10 06:21:12;;;;;;;97.18;67.15;;;7.20;99.90;;;;;;5102342;28;20043;-54
2023/04/10 06:23:38;;;;;;;94.88;67.00;;;7.30;99.90;;;;;;5103610;28;20036;-56
2023/04/10 06:26:03;;;;;;;87.70;60.87;;;7.40;99.90;;;;;;5101341;28;20067;-55
2023/04/10 06:28:29;;;;;;;88.70;63.10;;;7.50;99.90;;;;;;5105384;28;20431;-52
2023/04/10 06:30:56;;;;;;;89.65;61.08;;;7.60;99.90;;;;;;5109610;28;20122;-50
2023/04/10 06:33:21;;;;;;;87.43;59.40;;;7.70;99.90;;;;;;5106535;28;20130;-53
2023/04/10 06:35:47;;;;;;;82.30;59.97;;;7.80;99.90;;;;;;5107629;28;20171;-53
2023/04/10 06:38:13;;;;;;;82.57;57.55;;;8.00;99.90;;;;;;5108404;27;20036;-54
2023/04/10 06:40:40;;;;;;;88.87;58.83;;;8.10;99.90;;;;;;5106534;27;20050;-54
2023/04/10 06:43:05;;;;;;;78.75;56.78;;;8.20;99.90;;;;;;5106153;28;20306;-56
2023/04/10 06:45:31;;;;;;;82.53;57.40;;;8.30;99.90;;;;;;5103698;28;20072;-52
2023/04/10 06:47:56;;;;;;;74.60;52.83;;;8.50;99.90;;;;;;5098084;28;20043;-52
2023/04/10 06:50:22;;;;;;;76.60;54.37;;;8.60;99.90;;;;;;5101432;28;20285;-56
2023/04/10 06:52:47;;;;;;;73.80;53.17;;;8.70;99.90;;;;;;5100509;28;20281;-55
2023/04/10 06:55:13;;;;;;;75.17;55.37;;;8.70;99.90;;;;;;5106644;27;20693;-55
2023/04/10 06:57:39;;;;;;;78.55;50.30;;;8.80;99.90;;;;;;5103754;28;20035;-53
2023/04/10 07:00:06;;;;;;;71.07;49.42;;;8.80;99.90;;;;;;5104392;28;20044;-52
2023/04/10 07:02:31;;;;;;;68.68;48.53;;;8.80;99.90;;;;;;5112603;28;20032;-51
2023/04/10 07:04:57;;;;;;;73.43;49.93;;;8.80;99.90;;;;;;5111473;28;20035;-55
2023/04/10 07:07:23;;;;;;;72.87;50.23;;;8.80;99.90;;;;;;5112320;28;20497;-55
2023/04/10 07:09:48;;;;;;;75.25;51.50;;;8.90;99.90;;;;;;5111167;28;20040;-53
2023/04/10 07:12:15;;;;;;;72.20;52.10;;;8.90;99.90;;;;;;5107359;28;20423;-55
2023/04/10 07:14:41;;;;;;;;;;;8.90;99.90;;;;;;5112844;28;20040;-54
2023/04/10 07:17:07;;;;;;;65.57;47.55;;;9.00;99.90;;;;;;5095558;28;19923;-55
2023/04/10 07:19:32;;;;;;;69.72;49.95;;;9.00;99.90;;;;;;5100784;28;20047;-52
2023/04/10 07:21:58;;;;;;;69.03;49.13;;;9.10;99.90;;;;;;5108490;28;20163;-53
2023/04/10 07:24:24;;;;;;;69.20;48.83;;;9.10;99.90;;;;;;5103676;28;20308;-55
2023/04/10 07:26:49;;;;;;;65.80;45.17;;;9.20;99.90;;;;;;5099233;28;20039;-56
2023/04/10 07:29:15;;;;;;;61.92;44.33;;;9.30;99.90;;;;;;5111296;28;20440;-54
2023/04/10 07:31:40;;;;;;;63.63;43.43;;;9.60;99.90;;;;;;5104138;28;20062;-53
2023/04/10 07:34:06;;;;;;;57.42;40.78;;;9.70;99.90;;;;;;5108641;28;20032;-52
2023/04/10 07:36:32;;;;;;;52.45;37.45;;;9.80;99.90;;;;;;5094235;28;20416;-56
2023/04/10 07:38:58;;;;;;;56.45;38.92;;;9.90;99.90;;;;;;5106992;28;20477;-55
2023/04/10 07:41:24;;;;;;;54.03;39.35;;;10.00;99.90;;;;;;5105652;28;20126;-57
2023/04/10 07:43:50;;;;;;;53.03;36.80;;;10.10;99.90;;;;;;5112192;28;20260;-57
2023/04/10 07:46:16;;;;;;;52.63;36.43;;;10.20;99.90;;;;;;5105622;28;20524;-56
2023/04/10 07:48:43;;;;;;;46.42;35.28;;;10.20;99.90;;;;;;5103695;27;20282;-57
2023/04/10 07:51:09;;;;;;;49.70;33.42;;;10.30;99.90;;;;;;5100433;28;20043;-58
2023/04/10 07:53:36;;;;;;;44.83;32.45;;;10.50;99.90;;;;;;5110514;28;20540;-57
2023/04/10 07:56:02;;;;;;;48.40;34.78;;;10.60;99.90;;;;;;5102507;28;20078;-57
2023/04/10 07:58:27;;;;;;;39.33;30.25;;;10.90;99.90;;;;;;5110826;28;20431;-57
2023/04/10 08:00:53;;;;;;;42.05;29.77;;;11.00;99.90;;;;;;5102170;27;20040;-58
2023/04/10 08:03:19;;;;;;;40.33;31.08;;;11.10;99.90;;;;;;5111051;28;20473;-57
2023/04/10 08:05:44;;;;;;;42.60;31.63;;;11.20;99.90;;;;;;5109346;28;20468;-57
2023/04/10 08:08:10;;;;;;;40.58;29.48;;;11.30;99.90;;;;;;5110647;28;20031;-57
2023/04/10 08:10:37;;;;;;;40.43;29.67;;;11.40;99.90;;;;;;5103608;28;20160;-57
2023/04/10 08:13:03;;;;;;;39.10;29.25;;;11.60;99.90;;;;;;5107278;28;20062;-57
2023/04/10 08:15:29;;;;;;;37.60;28.52;;;11.70;99.90;;;;;;5109663;28;20495;-58
2023/04/10 08:17:54;;;;;;;34.90;25.70;;;11.80;99.90;;;;;;5095374;28;20119;-56
2023/04/10 08:20:20;;;;;;;37.00;27.50;;;11.90;99.90;;;;;;5107459;28;20104;-55
2023/04/10 08:22:46;;;;;;;38.00;27.63;;;12.00;99.90;;;;;;5096209;28;20035;-56
2023/04/10 08:25:11;;;;;;;38.63;26.17;;;12.10;99.90;;;;;;5111389;28;20555;-58
2023/04/10 08:27:37;;;;;;;36.97;24.52;;;12.20;99.90;;;;;;5101303;28;20036;-57
2023/04/10 08:30:03;;;;;;;36.90;26.63;;;12.30;99.20;;;;;;5089721;28;20028;-55
2023/04/10 08:32:29;;;;;;;37.42;25.80;;;12.40;98.80;;;;;;5108848;28;20051;-57
2023/04/10 08:34:55;;;;;;;38.13;27.00;;;12.50;99.60;;;;;;5110506;28;20039;-58
2023/04/10 08:37:21;;;;;;;34.17;26.52;;;12.60;99.20;;;;;;5108827;28;20058;-58
2023/04/10 08:39:47;;;;;;;38.55;27.73;;;12.60;98.90;;;;;;5109926;28;20048;-58
2023/04/10 08:42:12;;;;;;;33.65;25.60;;;12.70;98.30;;;;;;5108116;28;20062;-58
2023/04/10 08:44:38;;;;;;;34.28;24.50;;;12.70;98.30;;;;;;5111192;28;20043;-55
2023/04/10 08:47:05;;;;;;;35.25;25.67;;;12.70;98.10;;;;;;5109071;28;20088;-57
2023/04/10 08:49:43;;;;;;;36.90;25.63;;;12.70;98.60;;;;;;5109237;28;20042;-55
2023/04/10 08:52:14;;;;;;;37.53;26.60;;;12.70;97.70;;;;;;5103222;28;20098;-57
2023/04/10 08:54:42;;;;;;;32.10;23.80;;;12.70;97.70;;;;;;5108888;28;20047;-57
2023/04/10 08:57:12;;;;;;;33.40;24.20;;;12.70;98.00;;;;;;5109984;28;20149;-56
2023/04/10 08:59:38;;;;;;;36.63;23.02;;;12.80;97.80;;;;;;5109410;27;20043;-56
2023/04/10 09:02:05;;;;;;;40.05;24.92;;;12.90;97.80;;;;;;5099389;28;20425;-57
2023/04/10 09:04:30;;;;;;;30.88;22.92;;;12.90;97.70;;;;;;5089803;28;20040;-57
2023/04/10 09:06:56;;;;;;;29.50;21.58;;;13.00;97.60;;;;;;5091390;28;20039;-58
2023/04/10 09:09:22;;;;;;;29.83;21.85;;;13.10;97.50;;;;;;5089292;28;20165;-56
2023/04/10 09:11:51;;;;;;;32.33;24.35;;;13.20;97.90;;;;;;5098024;28;20085;-57
2023/04/10 09:14:21;;;;;;;29.25;21.75;;;13.30;98.50;;;;;;5110799;28;20051;-58
2023/04/10 09:16:47;;;;;;;27.73;20.92;;;13.40;97.50;;;;;;5108284;28;20092;-58
2023/04/10 09:19:27;;;;;;;26.35;19.92;;;13.50;97.20;;;;;;5109595;28;20122;-58
2023/04/10 09:21:54;;;;;;;29.05;19.92;;;13.60;97.00;;;;;;5109004;28;20067;-58
2023/04/10 09:24:19;;;;;;;;;;;13.70;96.60;;;;;;5111409;28;20047;-57
2023/04/10 09:26:45;;;;;;;24.45;18.38;;;13.70;96.90;;;;;;5108521;28;19927;-59
2023/04/10 09:29:11;;;;;;;24.15;17.30;;;13.90;97.00;;;;;;5108562;28;20043;-57
2023/04/10 09:31:38;;;;;;;18.48;14.63;;;14.00;96.20;;;;;;5108773;28;20067;-58
2023/04/10 09:34:09;;;;;;;17.02;13.98;;;14.10;95.40;;;;;;5110134;28;20046;-58
2023/04/10 09:36:40;;;;;;;21.58;13.55;;;14.10;94.90;;;;;;5108987;28;20043;-59
2023/04/10 09:39:06;;;;;;;15.30;13.57;;;14.10;95.30;;;;;;5088156;28;20036;-58
2023/04/10 09:41:31;;;;;;;;;;;14.20;95.10;;;;;;5089958;28;20054;-58
2023/04/10 09:44:10;;;;;;;14.77;12.70;;;14.30;94.90;;;;;;5095273;28;21552;-59
2023/04/10 09:46:36;;;;;;;13.77;11.52;;;14.40;94.10;;;;;;5104612;28;20040;-59
2023/04/10 09:49:04;;;;;;;13.43;11.27;;;14.50;94.60;;;;;;5107889;28;20035;-58
2023/04/10 09:51:34;;;;;;;13.13;10.63;;;14.50;93.20;;;;;;5109450;28;20403;-59
2023/04/10 09:54:01;;;;;;;13.70;10.82;;;14.40;93.30;;;;;;5109325;28;20568;-58
2023/04/10 09:56:28;;;;;;;15.88;11.57;;;14.40;92.60;;;;;;5109151;28;20394;-58
2023/04/10 09:58:58;;;;;;;13.20;10.13;;;14.40;93.10;;;;;;5107207;28;20046;-59
2023/04/10 10:01:29;;;;;;;13.82;10.75;;;14.30;93.00;;;;;;5110008;28;20049;-58
2023/04/10 10:03:55;;;;;;;13.27;11.35;;;14.30;92.40;;;;;;5094831;28;20042;-58
2023/04/10 10:06:22;;;;;;;15.30;11.95;;;14.30;92.10;;;;;;5109858;28;20093;-57
2023/04/10 10:08:48;;;;;;;;;;;14.40;92.30;;;;;;5106881;28;20494;-58
2023/04/10 10:11:22;;;;;;;10.68;9.40;;;14.40;91.80;;;;;;5109230;28;19915;-57
2023/04/10 10:13:57;;;;;;;10.73;9.43;;;14.50;92.40;;;;;;5094155;28;20119;-59
2023/04/10 10:16:32;;;;;;;10.15;8.90;;;14.50;92.30;;;;;;5089253;28;20040;-59
2023/04/10 10:19:11;;;;;;;9.90;8.02;;;14.60;92.10;;;;;;5074499;28;20044;-58
2023/04/10 10:21:37;;;;;;;9.98;7.72;;;14.70;92.50;;;;;;5108340;28;20043;-58
2023/04/10 10:24:07;;;;;;;13.75;9.15;;;14.80;92.50;;;;;;5107576;28;20065;-58
2023/04/10 10:26:34;;;;;;;38.72;8.18;;;15.00;93.10;;;;;;5088823;28;20040;-60
2023/04/10 10:29:04;;;;;;;8.55;7.65;;;15.10;92.40;;;;;;5093439;28;20442;-58
2023/04/10 10:31:32;;;;;;;10.48;8.88;;;15.10;90.40;;;;;;5107776;28;20209;-58
2023/04/10 10:34:03;;;;;;;9.05;7.60;;;15.10;90.70;;;;;;5091312;28;20043;-56
2023/04/10 10:36:30;;;;;;;8.43;7.38;;;15.10;90.90;;;;;;5091918;28;20043;-59
2023/04/10 10:39:13;;;;;;;9.80;7.15;;;15.10;91.10;;;;;;5089884;28;20040;-55
2023/04/10 10:42:06;;;;;;;9.57;7.25;;;15.10;90.30;;;;;;5107465;28;20054;-55
2023/04/10 10:44:41;;;;;;;13.93;7.38;;;15.10;91.10;;;;;;5088782;28;20036;-56
2023/04/10 10:47:23;;;;;;;8.52;7.28;;;15.20;90.80;;;;;;5089374;28;20086;-58
2023/04/10 10:49:53;;;;;;;8.98;6.30;;;15.30;90.90;;;;;;5108038;28;20439;-56
2023/04/10 10:52:38;;;;;;;8.50;6.35;;;15.30;90.40;;;;;;5107928;28;20092;-58
2023/04/10 10:55:26;;;;;;;7.60;6.38;;;15.40;90.50;;;;;;5113089;28;20036;-56
2023/04/10 10:58:05;;;;;;;8.00;6.10;;;15.50;91.00;;;;;;5111175;28;20523;-57
2023/04/10 11:00:49;;;;;;;6.15;5.57;;;15.50;91.40;;;;;;5109344;28;20047;-55
2023/04/10 11:03:15;;;;;;;15.63;6.53;;;15.50;90.40;;;;;;5104787;28;20093;-53
2023/04/10 11:06:05;;;;;;;8.53;5.63;;;15.50;90.70;;;;;;5093146;28;20122;-56
2023/04/10 11:08:31;;;;;;;9.23;6.00;;;15.50;91.10;;;;;;5100706;28;20289;-56
2023/04/10 11:11:22;;;;;;;7.93;5.05;;;15.50;90.20;;;;;;5098967;28;20043;-57
2023/04/10 11:13:56;;;;;;;5.00;4.57;;;15.50;90.70;;;;;;5102018;28;20088;-54
2023/04/10 11:16:34;;;;;;;4.82;4.28;;;15.50;89.50;;;;;;5092465;28;20036;-54
2023/04/10 11:19:00;;;;;;;4.22;3.83;;;15.50;89.90;;;;;;5103016;28;20101;-56
2023/04/10 11:21:27;;;;;;;6.53;3.80;;;15.50;90.20;;;;;;5110885;28;20039;-55
2023/04/10 11:23:55;;;;;;;5.43;3.65;;;15.60;89.60;;;;;;5099830;28;20295;-59
2023/04/10 11:26:42;;;;;;;5.45;3.72;;;15.60;88.20;;;;;;5112492;28;20039;-56
2023/04/10 11:29:16;;;;;;;5.28;3.78;;;15.60;87.20;;;;;;5105222;28;20043;-53
2023/04/10 11:31:53;;;;;;;4.72;3.55;;;15.60;87.00;;;;;;5112536;28;20040;-54
2023/04/10 11:34:19;;;;;;;3.55;3.25;;;15.70;88.20;;;;;;5093471;28;20055;-57
2023/04/10 11:36:45;;;;;;;3.70;3.25;;;15.70;87.70;;;;;;5091476;28;20040;-58
2023/04/10 11:39:18;;;;;;;3.85;3.03;;;15.60;86.90;;;;;;5096185;28;20050;-60
2023/04/10 11:41:46;;;;;;;6.72;3.95;;;15.70;87.90;;;;;;5099308;28;20039;-60
2023/04/10 11:44:14;;;;;;;5.03;3.38;;;15.70;87.60;;;;;;5094493;28;20089;-57
2023/04/10 11:46:41;;;;;;;5.13;3.00;;;15.70;86.20;;;;;;5091645;28;20055;-58
2023/04/10 11:49:09;;;;;;;3.97;3.42;;;15.70;87.80;;;;;;5097145;27;20038;-58
2023/04/10 11:51:36;;;;;;;4.75;3.08;;;15.70;86.90;;;;;;5119745;27;20035;-58
2023/04/10 11:54:08;;;;;;;4.78;2.88;;;15.70;88.60;;;;;;5092842;28;20059;-60
2023/04/10 11:56:35;;;;;;;6.53;3.00;;;15.70;86.30;;;;;;5102974;28;20042;-58
2023/04/10 11:59:06;;;;;;;4.22;3.70;;;15.70;85.70;;;;;;5104381;28;20393;-61
2023/04/10 12:01:32;;;;;;;3.67;3.33;;;15.60;85.40;;;;;;5103225;28;20085;-58
2023/04/10 12:03:59;;;;;;;4.88;3.08;;;15.70;87.80;;;;;;5102225;28;20407;-59
2023/04/10 12:06:26;;;;;;;7.07;4.20;;;15.70;86.30;;;;;;5110020;28;20043;-58
2023/04/10 12:08:52;;;;;;;5.43;3.40;;;15.70;86.00;;;;;;5109209;28;20028;-59
2023/04/10 12:11:22;;;;;;;4.53;2.75;;;15.60;86.60;;;;;;5101171;28;20046;-60
2023/04/10 12:13:52;;;;;;;3.55;3.25;;;15.80;87.80;;;;;;5097208;28;20173;-57
2023/04/10 12:16:18;;;;;;;5.15;3.30;;;15.80;89.20;;;;;;5096740;28;20036;-61
2023/04/10 12:18:46;;;;;;;3.83;3.42;;;16.00;87.40;;;;;;5109600;27;20560;-59
2023/04/10 12:21:12;;;;;;;4.93;2.78;;;16.10;90.20;;;;;;5099684;27;20036;-59
2023/04/10 12:23:38;;;;;;;3.95;3.60;;;16.20;87.10;;;;;;5097884;28;20062;-60
2023/04/10 12:26:16;;;;;;;4.13;3.72;;;16.30;86.90;;;;;;5110810;28;20081;-61
2023/04/10 12:28:52;;;;;;;3.85;3.42;;;16.40;86.00;;;;;;5102054;28;20039;-61
2023/04/10 12:31:18;;;;;;;4.15;2.97;;;16.50;88.90;;;;;;5108855;28;20028;-60
2023/04/10 12:33:45;;;;;;;4.00;3.47;;;16.60;88.00;;;;;;5090043;28;20572;-60
2023/04/10 12:36:28;;;;;;;4.32;3.20;;;16.60;85.90;;;;;;5089765;28;20036;-58
2023/04/10 12:38:53;;;;;;;2.85;2.58;;;16.70;86.50;;;;;;5096700;28;20536;-58